createdAt,value
2023-03-29T00:03:18.797Z,28.49
2023-03-29T00:08:21.954Z,27.80
2023-03-29T00:13:23.676Z,27.70
2023-03-29T00:18:25.487Z,28.76
2023-03-29T00:23:27.676Z,29.54
2023-03-29T00:28:29.907Z,30.87
2023-03-29T00:33:31.932Z,30.38
2023-03-29T00:38:33.743Z,31.76
2023-03-29T00:43:59.278Z,30.88
2023-03-29T00:49:07.465Z,31.05
2023-03-29T00:54:14.632Z,32.36
2023-03-29T00:59:22.218Z,32.89
2023-03-29T01:04:32.195Z,34.22
2023-03-29T01:09:39.114Z,33.06
2023-03-29T01:14:44.557Z,32.80
2023-03-29T01:19:58.197Z,32.91
2023-03-29T01:25:20.473Z,34.30
2023-03-29T01:30:31.609Z,36.56
2023-03-29T01:35:48.351Z,38.27
2023-03-29T01:40:50.374Z,40.07
2023-03-29T01:45:55.063Z,40.32
2023-03-29T01:51:17.062Z,40.11
2023-03-29T01:56:23.140Z,43.24
2023-03-29T02:01:31.370Z,41.52
2023-03-29T02:06:36.005Z,42.66
2023-03-29T02:11:37.900Z,43.04
2023-03-29T02:16:40.850Z,43.46
2023-03-29T02:22:07.336Z,44.14
2023-03-29T02:27:09.152Z,43.17
2023-03-29T02:32:53.691Z,41.38
2023-03-29T02:37:57.826Z,43.59
2023-03-29T02:43:02.556Z,41.92
2023-03-29T02:48:10.080Z,39.41
2023-03-29T02:53:18.870Z,41.82
2023-03-29T02:58:26.675Z,43.26
2023-03-29T03:03:29.250Z,42.27
2023-03-29T03:08:33.810Z,41.30
2023-03-29T03:13:35.587Z,41.95
2023-03-29T03:18:37.959Z,42.98
2023-03-29T03:23:40.469Z,41.38
2023-03-29T03:28:43.124Z,41.53
2023-03-29T03:33:54.429Z,41.14
2023-03-29T03:39:17.316Z,38.91
2023-03-29T03:44:19.299Z,39.12
2023-03-29T03:49:27.558Z,37.51
2023-03-29T03:54:29.421Z,37.32
2023-03-29T03:59:49.695Z,44.36
2023-03-29T04:05:03.547Z,41.30
2023-03-29T04:10:11.140Z,43.23
2023-03-29T04:15:13.007Z,40.44
2023-03-29T04:20:20.845Z,45.83
2023-03-29T04:25:23.321Z,41.51
2023-03-29T04:30:34.358Z,41.28
2023-03-29T04:35:50.152Z,43.24
2023-03-29T04:40:54.916Z,42.00
2023-03-29T04:46:16.413Z,44.62
2023-03-29T04:51:39.120Z,48.45
2023-03-29T04:56:41.166Z,45.22
2023-03-29T05:02:07.350Z,43.03
2023-03-29T05:07:12.994Z,43.31
2023-03-29T05:12:14.977Z,44.41
2023-03-29T05:17:29.890Z,43.06
2023-03-29T05:22:38.300Z,42.63
2023-03-29T05:27:43.231Z,41.90
2023-03-29T05:32:46.825Z,41.02
2023-03-29T05:37:51.901Z,40.96
2023-03-29T05:42:53.790Z,39.84
2023-03-29T05:47:57.692Z,39.53
2023-03-29T05:52:59.802Z,40.13
2023-03-29T05:58:02.217Z,39.29
2023-03-29T06:03:14.071Z,40.44
2023-03-29T06:08:23.385Z,41.01
2023-03-29T06:13:37.835Z,41.96
2023-03-29T06:18:41.085Z,40.74
2023-03-29T06:23:43.191Z,40.91
2023-03-29T06:28:45.503Z,39.39
2023-03-29T06:33:47.591Z,40.62
2023-03-29T06:39:00.262Z,40.07
2023-03-29T06:44:25.613Z,40.42
2023-03-29T06:49:34.859Z,39.89
2023-03-29T06:54:48.382Z,39.61
2023-03-29T06:59:50.305Z,38.90
2023-03-29T07:04:57.098Z,39.43
2023-03-29T07:10:04.391Z,42.09
2023-03-29T07:15:21.818Z,41.21
2023-03-29T07:20:48.483Z,41.86
2023-03-29T07:25:51.183Z,41.94
2023-03-29T07:30:55.932Z,44.26
2023-03-29T07:35:57.766Z,43.64
2023-03-29T07:41:06.641Z,43.10
2023-03-29T07:46:25.919Z,41.56
2023-03-29T07:51:27.894Z,40.61
2023-03-29T07:56:38.128Z,41.33
2023-03-29T08:01:46.007Z,40.60
2023-03-29T08:07:00.531Z,40.00
2023-03-29T08:12:18.623Z,42.37
2023-03-29T08:17:20.626Z,39.94
2023-03-29T08:22:24.945Z,41.62
2023-03-29T08:27:49.748Z,40.13
2023-03-29T08:33:01.707Z,42.66
2023-03-29T08:38:03.723Z,40.86
2023-03-29T08:43:23.979Z,41.85
2023-03-29T08:48:48.638Z,40.24
2023-03-29T08:54:25.010Z,41.00
2023-03-29T08:59:49.002Z,40.99
2023-03-29T09:04:56.985Z,39.59
2023-03-29T09:10:12.545Z,39.01
2023-03-29T09:15:22.116Z,39.39
2023-03-29T09:21:17.214Z,38.79
2023-03-29T09:26:19.810Z,39.25
2023-03-29T09:31:44.510Z,41.01
2023-03-29T09:36:54.530Z,41.31
2023-03-29T09:42:09.230Z,41.71
2023-03-29T09:47:29.533Z,37.19
2023-03-29T09:52:33.959Z,39.41
2023-03-29T09:57:47.343Z,40.17
2023-03-29T10:02:54.691Z,38.82
2023-03-29T10:08:19.597Z,38.96
2023-03-29T10:13:31.568Z,38.94
2023-03-29T10:18:43.185Z,38.18
2023-03-29T10:23:45.034Z,38.44
2023-03-29T10:28:47.100Z,37.36
2023-03-29T10:33:56.269Z,37.60
2023-03-29T10:39:04.296Z,38.24
2023-03-29T10:44:08.430Z,42.23
2023-03-29T10:49:19.472Z,40.56
2023-03-29T10:54:24.189Z,42.96
2023-03-29T10:59:29.469Z,41.77
2023-03-29T11:04:43.929Z,40.25
2023-03-29T11:10:04.082Z,39.81
2023-03-29T11:15:18.120Z,40.20
2023-03-29T11:20:51.933Z,42.73
2023-03-29T11:25:53.772Z,41.50
2023-03-29T11:30:58.698Z,43.54
2023-03-29T11:36:00.530Z,42.17
2023-03-29T11:41:23.276Z,41.41
2023-03-29T11:46:27.943Z,40.28
2023-03-29T11:51:34.578Z,38.97
2023-03-29T11:56:44.230Z,37.15
2023-03-29T12:01:54.072Z,36.73
2023-03-29T12:07:00.540Z,36.04
2023-03-29T12:12:42.652Z,35.14
2023-03-29T12:17:51.662Z,34.68
2023-03-29T12:22:54.485Z,35.12
2023-03-29T12:28:15.033Z,34.36
2023-03-29T12:34:01.407Z,40.29
2023-03-29T12:39:32.862Z,38.78
2023-03-29T12:45:00.501Z,40.19
2023-03-29T12:50:22.432Z,38.86
2023-03-29T12:55:31.207Z,39.94
2023-03-29T13:00:42.513Z,37.85
2023-03-29T13:05:44.453Z,38.24
2023-03-29T13:10:53.222Z,39.49
2023-03-29T13:15:55.777Z,38.97
2023-03-29T13:21:16.097Z,38.97
2023-03-29T13:26:39.658Z,37.25
2023-03-29T13:31:53.076Z,36.04
2023-03-29T13:37:17.632Z,37.73
2023-03-29T13:42:34.348Z,36.12
2023-03-29T13:47:58.237Z,34.98
2023-03-29T13:53:22.579Z,34.98
2023-03-29T13:58:40.678Z,34.12
2023-03-29T14:03:46.702Z,33.27
2023-03-29T14:08:49.831Z,33.24
2023-03-29T14:13:56.412Z,33.28
2023-03-29T14:19:00.086Z,32.89
2023-03-29T14:24:02.682Z,31.27
2023-03-29T14:29:04.452Z,31.04
2023-03-29T14:34:11.609Z,30.68
2023-03-29T14:39:19.206Z,30.30
2023-03-29T14:44:23.316Z,29.66
2023-03-29T14:49:25.508Z,28.53
2023-03-29T14:54:31.834Z,31.04
2023-03-29T14:59:48.330Z,30.94
2023-03-29T15:05:04.743Z,29.91
2023-03-29T15:10:07.312Z,30.05
2023-03-29T15:15:12.535Z,34.36
2023-03-29T15:20:37.379Z,31.38
2023-03-29T15:25:54.116Z,29.92
2023-03-29T15:36:10.096Z,30.12
2023-03-29T15:41:13.884Z,31.90
2023-03-29T15:46:16.836Z,36.41
2023-03-29T15:51:18.801Z,38.43
2023-03-29T15:56:22.893Z,38.98
2023-03-29T16:08:33.869Z,35.23
2023-03-29T16:13:35.607Z,33.31
2023-03-29T16:18:37.775Z,35.29
2023-03-29T16:23:39.842Z,34.66
2023-03-29T16:28:42.012Z,35.02
2023-03-29T16:33:43.792Z,35.23
2023-03-29T16:38:46.014Z,32.18
2023-03-29T16:43:47.917Z,35.79
2023-03-29T16:48:51.423Z,32.70
2023-03-29T16:53:53.188Z,34.82
2023-03-29T16:58:54.987Z,36.10
2023-03-29T17:03:57.216Z,33.53
2023-03-29T17:08:59.543Z,31.71
2023-03-29T17:14:01.264Z,32.48
2023-03-29T17:19:03.001Z,36.13
2023-03-29T17:24:04.984Z,37.46
2023-03-29T17:29:06.993Z,38.17
2023-03-29T17:34:08.690Z,33.85
2023-03-29T17:39:10.804Z,35.34
2023-03-29T17:44:12.597Z,33.71
2023-03-29T17:49:14.766Z,34.34
2023-03-29T17:54:16.576Z,35.99
2023-03-29T17:59:18.392Z,34.22
2023-03-29T18:04:20.111Z,34.50
2023-03-29T18:09:21.796Z,34.41
2023-03-29T18:14:23.546Z,34.39
2023-03-29T18:19:25.400Z,33.96
2023-03-29T18:24:27.468Z,34.57
2023-03-29T18:29:29.258Z,33.67
2023-03-29T18:34:31.250Z,34.57
2023-03-29T18:39:34.716Z,33.33
2023-03-29T18:44:36.598Z,34.85
2023-03-29T18:49:38.611Z,34.09
2023-03-29T18:54:41.515Z,33.95
2023-03-29T18:59:43.236Z,32.99
2023-03-29T19:04:45.238Z,34.42
2023-03-29T19:09:46.953Z,34.42
2023-03-29T19:14:48.642Z,33.09
2023-03-29T19:19:50.388Z,32.55
2023-03-29T19:24:52.087Z,32.61
2023-03-29T19:29:54.187Z,33.56
2023-03-29T19:34:56.007Z,33.23
2023-03-29T19:39:57.684Z,32.73
2023-03-29T19:44:59.369Z,33.49
2023-03-29T19:50:02.120Z,31.94
2023-03-29T19:55:04.240Z,33.00
2023-03-29T20:00:10.791Z,33.37
2023-03-29T20:05:16.225Z,35.33
2023-03-29T20:10:18.084Z,34.13
2023-03-29T20:15:19.759Z,33.52
2023-03-29T20:20:22.987Z,31.77
2023-03-29T20:25:24.985Z,34.29
2023-03-29T20:30:26.865Z,34.02
2023-03-29T20:35:28.574Z,34.44
2023-03-29T20:40:31.600Z,33.01
2023-03-29T20:45:51.700Z,33.08
2023-03-29T20:50:55.348Z,32.87
2023-03-29T20:55:57.054Z,31.25
2023-03-29T21:00:58.960Z,32.03
2023-03-29T21:06:02.384Z,31.19
2023-03-29T21:11:04.181Z,31.31
2023-03-29T21:16:06.352Z,33.74
2023-03-29T21:21:08.856Z,33.09
2023-03-29T21:26:10.546Z,33.41
2023-03-29T21:31:12.464Z,32.39
2023-03-29T21:36:14.232Z,31.80
2023-03-29T21:41:16.978Z,31.08
2023-03-29T21:46:18.758Z,32.74
2023-03-29T21:51:20.744Z,31.68
2023-03-29T21:56:23.105Z,31.57
2023-03-29T22:01:28.148Z,30.81
2023-03-29T22:06:30.792Z,30.93
2023-03-29T22:11:32.558Z,32.60
2023-03-29T22:16:37.175Z,31.50
2023-03-29T22:21:38.961Z,31.46
2023-03-29T22:26:41.083Z,32.57
2023-03-29T22:31:42.896Z,32.37
2023-03-29T22:36:44.568Z,32.52
2023-03-29T22:41:46.664Z,33.62
2023-03-29T22:46:48.444Z,32.79
2023-03-29T22:51:50.348Z,32.05
2023-03-29T22:56:52.058Z,31.29
2023-03-29T23:01:53.964Z,31.53
2023-03-29T23:06:56.184Z,32.91
2023-03-29T23:11:57.948Z,31.91
2023-03-29T23:16:59.776Z,31.71
2023-03-29T23:22:01.586Z,31.37
2023-03-29T23:27:04.869Z,31.00
2023-03-29T23:32:06.869Z,31.14
2023-03-29T23:37:09.011Z,31.71
2023-03-29T23:42:10.857Z,31.56
2023-03-29T23:47:12.507Z,31.92
2023-03-29T23:52:14.181Z,32.88
2023-03-29T23:57:15.910Z,32.63
